地図

経路データ

SID SEASON NUMBER BASIN SUBBASIN NAME ISO_TIME NATURE LAT LON WMO_WIND WMO_PRES WMO_AGENCY TRACK_TYPE DIST2LAND LANDFALL IFLAG USA_AGENCY USA_ATCF_ID USA_LAT USA_LON USA_RECORD USA_STATUS USA_WIND USA_PRES USA_SSHS USA_R34_NE USA_R34_SE USA_R34_SW USA_R34_NW USA_R50_NE USA_R50_SE USA_R50_SW USA_R50_NW USA_R64_NE USA_R64_SE USA_R64_SW USA_R64_NW USA_POCI USA_ROCI USA_RMW USA_EYE TOKYO_LAT TOKYO_LON TOKYO_GRADE TOKYO_WIND TOKYO_PRES TOKYO_R50_DIR TOKYO_R50_LONG TOKYO_R50_SHORT TOKYO_R30_DIR TOKYO_R30_LONG TOKYO_R30_SHORT TOKYO_LAND CMA_LAT CMA_LON CMA_CAT CMA_WIND CMA_PRES HKO_LAT HKO_LON HKO_CAT HKO_WIND HKO_PRES NEWDELHI_LAT NEWDELHI_LON NEWDELHI_GRADE NEWDELHI_WIND NEWDELHI_PRES NEWDELHI_CI NEWDELHI_DP NEWDELHI_POCI REUNION_LAT REUNION_LON REUNION_TYPE REUNION_WIND REUNION_PRES REUNION_TNUM REUNION_CI REUNION_RMW REUNION_R34_NE REUNION_R34_SE REUNION_R34_SW REUNION_R34_NW REUNION_R50_NE REUNION_R50_SE REUNION_R50_SW REUNION_R50_NW REUNION_R64_NE REUNION_R64_SE REUNION_R64_SW REUNION_R64_NW BOM_LAT BOM_LON BOM_TYPE BOM_WIND BOM_PRES BOM_TNUM BOM_CI BOM_RMW BOM_R34_NE BOM_R34_SE BOM_R34_SW BOM_R34_NW BOM_R50_NE BOM_R50_SE BOM_R50_SW BOM_R50_NW BOM_R64_NE BOM_R64_SE BOM_R64_SW BOM_R64_NW BOM_ROCI BOM_POCI BOM_EYE BOM_POS_METHOD BOM_PRES_METHOD NADI_LAT NADI_LON NADI_CAT NADI_WIND NADI_PRES WELLINGTON_LAT WELLINGTON_LON WELLINGTON_WIND WELLINGTON_PRES DS824_LAT DS824_LON DS824_STAGE DS824_WIND DS824_PRES TD9636_LAT TD9636_LON TD9636_STAGE TD9636_WIND TD9636_PRES TD9635_LAT TD9635_LON TD9635_WIND TD9635_PRES TD9635_ROCI NEUMANN_LAT NEUMANN_LON NEUMANN_CLASS NEUMANN_WIND NEUMANN_PRES MLC_LAT MLC_LON MLC_CLASS MLC_WIND MLC_PRES USA_GUST BOM_GUST BOM_GUST_PER REUNION_GUST REUNION_GUST_PER USA_SEAHGT USA_SEARAD_NE USA_SEARAD_SE USA_SEARAD_SW USA_SEARAD_NW STORM_SPEED STORM_DIR
1979152N11265 1979 40 EP MM ANDRES 1979-05-31 18:00:00 TS 11.0000 -95.5000 25 hurdat_epa main 528 522 O________OO___ hurdat_epa EP011979 11.0000 -95.5000 TD 25 -1 11.0000 -95.5000 TC 25 11.0000 -95.5000 1 25 7 271
1979152N11265 1979 40 EP MM ANDRES 1979-05-31 21:00:00 TS 11.0052 -95.8491 main 522 516 P________PP___ EP011979 11.0076 -95.8500 TD 27 -1 11.0076 -95.8500 TC 27 10.9958 -95.8457 1 27 7 270
1979152N11265 1979 40 EP MM ANDRES 1979-06-01 00:00:00 TS 11.0000 -96.2000 30 hurdat_epa main 516 515 O________OO___ hurdat_epa EP011979 11.0000 -96.2000 TD 30 -1 11.0000 -96.2000 TC 30 11.0000 -96.2000 1 30 7 268
1979152N11265 1979 40 EP MM ANDRES 1979-06-01 03:00:00 TS 10.9863 -96.5535 main 515 515 P________PP___ EP011979 10.9775 -96.5501 TD 30 -1 10.9775 -96.5501 TC 30 11.0218 -96.5671 1 30 7 271
1979152N11265 1979 40 EP MM ANDRES 1979-06-01 06:00:00 TS 11.0143 -96.9068 30 hurdat_epa main 516 506 O________OP___ hurdat_epa EP011979 11.0000 -96.9000 TD 30 -1 11.0000 -96.9000 TC 30 11.0717 -96.9342 1 30 7 281
1979152N11265 1979 40 EP MM ANDRES 1979-06-01 09:00:00 TS 11.1222 -97.2748 main 509 491 P________PP___ EP011979 11.1125 -97.2725 TD 30 -1 11.1125 -97.2725 TC 30 11.1607 -97.2842 1 30 7 293
1979152N11265 1979 40 EP MM ANDRES 1979-06-01 12:00:00 TS 11.3000 -97.6000 30 hurdat_epa main 493 477 O________OO___ hurdat_epa EP011979 11.3000 -97.6000 TD 30 -1 11.3000 -97.6000 TC 30 11.3000 -97.6000 1 30 7 307
1979152N11265 1979 40 EP MM ANDRES 1979-06-01 15:00:00 TS 11.5270 -97.8275 main 477 451 P________PP___ EP011979 11.5349 -97.8151 TD 30 -1 11.5349 -97.8151 TC 30 11.4955 -97.8771 1 30 6 320
1979152N11265 1979 40 EP MM ANDRES 1979-06-01 18:00:00 TS 11.7880 -98.0235 30 hurdat_epa main 451 438 O________OP___ hurdat_epa EP011979 11.8000 -98.0000 TD 30 -1 11.8000 -98.0000 TC 30 11.7398 -98.1174 1 30 7 320
1979152N11265 1979 40 EP MM ANDRES 1979-06-01 21:00:00 TS 12.0429 -98.2708 main 442 421 P________PP___ EP011979 12.0500 -98.2575 TD 30 -1 12.0500 -98.2575 TC 30 12.0143 -98.3240 1 30 7 318
1979152N11265 1979 40 EP MM ANDRES 1979-06-02 00:00:00 TS 12.3000 -98.5000 30 hurdat_epa main 421 401 O________OO___ hurdat_epa EP011979 12.3000 -98.5000 TD 30 -1 12.3000 -98.5000 TC 30 12.3000 -98.5000 1 30 6 322
1979152N11265 1979 40 EP MM ANDRES 1979-06-02 03:00:00 TS 12.5467 -98.6688 main 403 374 P________PP___ EP011979 12.5425 -98.6726 TD 32 -1 12.5425 -98.6726 TC 32 12.5636 -98.6540 1 31 6 330
1979152N11265 1979 40 EP MM ANDRES 1979-06-02 06:00:00 TS 12.8070 -98.7961 35 hurdat_epa main 374 345 O________OP___ hurdat_epa EP011979 12.8000 -98.8000 TS 35 0 12.8000 -98.8000 TC 35 12.8349 -98.7803 1 32 6 338
1979152N11265 1979 40 EP MM ANDRES 1979-06-02 09:00:00 TS 13.1027 -98.8983 main 345 318 P________PP___ EP011979 13.1000 -98.9001 TS 35 0 13.1000 -98.9001 TC 35 13.1137 -98.8915 1 33 6 341
1979152N11265 1979 40 EP MM ANDRES 1979-06-02 12:00:00 TS 13.4000 -99.0000 35 hurdat_epa main 318 302 O________OO___ hurdat_epa EP011979 13.4000 -99.0000 TS 35 0 13.4000 -99.0000 TC 35 13.4000 -99.0000 2 35 6 336
1979152N11265 1979 40 EP MM ANDRES 1979-06-02 15:00:00 TS 13.6518 -99.1434 main 292 278 P________PP___ EP011979 13.6425 -99.1500 TS 37 0 13.6425 -99.1500 TC 37 13.6887 -99.1171 2 40 6 332
1979152N11265 1979 40 EP MM ANDRES 1979-06-02 18:00:00 TS 13.9170 -99.2871 40 hurdat_epa main 278 250 O________OP___ hurdat_epa EP011979 13.9000 -99.3000 TS 40 0 13.9000 -99.3000 TC 40 13.9849 -99.2353 2 45 6 339
1979152N11265 1979 40 EP MM ANDRES 1979-06-02 21:00:00 TS 14.2517 -99.3863 main 239 213 P________PP___ EP011979 14.2425 -99.3926 TS 47 0 14.2425 -99.3926 TC 47 14.2887 -99.3608 2 50 7 343
1979152N11265 1979 40 EP MM ANDRES 1979-06-03 00:00:00 TS 14.6000 -99.5000 55 hurdat_epa main 213 189 O________OO___ hurdat_epa EP011979 14.6000 -99.5000 TS 55 0 14.6000 -99.5000 TC 55 14.6000 -99.5000 2 55 7 336
1979152N11265 1979 40 EP MM ANDRES 1979-06-03 03:00:00 TS 14.9044 -99.6813 main 196 168 P________PP___ EP011979 14.9000 -99.6925 TS 55 0 14.9000 -99.6925 TC 55 14.9217 -99.6365 2 56 7 329
1979152N11265 1979 40 EP MM ANDRES 1979-06-03 06:00:00 TS 15.2099 -99.8781 55 hurdat_epa main 169 138 O________OP___ hurdat_epa EP011979 15.2000 -99.9000 TS 55 0 15.2000 -99.9000 TC 55 15.2497 -99.7905 2 57 7 332
1979152N11265 1979 40 EP MM ANDRES 1979-06-03 09:00:00 TS 15.5435 -100.029 main 138 104 P________PP___ EP011979 15.5349 -100.043 TS 57 0 15.5349 -100.043 TC 57 15.5779 -99.9741 2 58 8 336
1979152N11265 1979 40 EP MM ANDRES 1979-06-03 12:00:00 TS 15.9000 -100.200 60 hurdat_epa main 104 79 O________OO___ hurdat_epa EP011979 15.9000 -100.200 TS 60 0 15.9000 -100.200 TC 60 15.9000 -100.200 2 60 9 333
1979152N11265 1979 40 EP MM ANDRES 1979-06-03 15:00:00 TS 16.3002 -100.423 main 79 56 P________PP___ EP011979 16.3224 -100.412 TS 62 0 16.3224 -100.412 TC 62 16.2112 -100.466 2 66 9 327
1979152N11265 1979 40 EP MM ANDRES 1979-06-03 18:00:00 TS 16.6630 -100.715 65 hurdat_epa main 49 39 O________OP___ hurdat_epa EP011979 16.7000 -100.700 HU 65 1 16.7000 -100.700 TC 65 16.5148 -100.775 2 72 9 314
1979152N11265 1979 40 EP MM ANDRES 1979-06-03 21:00:00 TS 16.9062 -101.087 main 44 35 P________PP___ EP011979 16.9300 -101.078 HU 75 1 16.9300 -101.078 TC 75 16.8111 -101.122 2 78 9 300
1979152N11265 1979 40 EP MM ANDRES 1979-06-04 00:00:00 TS 17.1000 -101.500 85 hurdat_epa main 46 45 O________OO___ hurdat_epa EP011979 17.1000 -101.500 HU 85 2 17.1000 -101.500 TC 85 17.1000 -101.500 4 85 9 297
1979152N11265 1979 40 EP MM ANDRES 1979-06-04 03:00:00 TS 17.2983 -101.895 main 49 44 P________PP___ EP011979 17.2774 -101.893 HU 82 1 17.2774 -101.893 TC 82 17.3820 -101.903 4 80 9 299
1979152N11265 1979 40 EP MM ANDRES 1979-06-04 06:00:00 TS 17.5250 -102.304 80 hurdat_epa main 44 24 O________OP___ hurdat_epa EP011979 17.5000 -102.300 HU 80 1 17.5000 -102.300 TC 80 17.6583 -102.324 4 75 10 303
1979152N11265 1979 40 EP MM ANDRES 1979-06-04 09:00:00 TS 17.8323 -102.751 main 30 0 P________PP___ EP011979 17.8200 -102.750 HU 72 1 17.8200 -102.750 TC 72 17.9305 -102.758 4 70 11 308
1979152N11265 1979 40 EP MM ANDRES 1979-06-04 12:00:00 TS 18.2000 -103.200 65 hurdat_epa main 0 0 O________OO___ hurdat_epa EP011979 18.2000 -103.200 HU 65 1 18.2000 -103.200 TC 65 18.2000 -103.200 4 65 11 313
1979152N11265 1979 40 EP MM ANDRES 1979-06-04 15:00:00 TS 18.5976 -103.612 main 0 0 P________P____ EP011979 18.5976 -103.612 HU 47 0 18.5976 -103.612 TC 47 4 11 317
1979152N11265 1979 40 EP MM ANDRES 1979-06-04 18:00:00 ET 19.0000 -104.000 30 hurdat_epa main 0 O________O____ hurdat_epa EP011979 19.0000 -104.000 ET 30 -4 19.0000 -104.000 30 4 11 318

IBTrACS Databaseについて

本データベースは、米国NOAAが公開する1842年以降の世界の熱帯低気圧のベストトラックデータアーカイブInternational Best Track Archive for Climate Stewardship (IBTrACS)を、ウェブで閲覧しやすい形式に変換したものです。

最終更新日:2021-10-21